Time;durP1;ratioP1;P1;durP2;ratioP2;P2;SDS_P1;SDS_P2;PMS_P1;PMS_P2;Temp;Humidity;BMP_temperature;BMP_pressure;BME280_temperature;BME280_humidity;BME280_pressure;Samples;Min_cycle;Max_cycle;Signal;HPM_P1;HPM_P2
2023/03/21 00:02:16;;;;;;;2.08;0.88;;;17.40;86.60;;;;;;5127177;27;45379;-80
2023/03/21 00:04:43;;;;;;;1.73;0.70;;;17.40;85.00;;;;;;5127438;27;45308;-81
2023/03/21 00:07:09;;;;;;;1.17;0.50;;;17.40;85.70;;;;;;5127175;27;45072;-80
2023/03/21 00:09:36;;;;;;;2.70;0.77;;;17.40;86.60;;;;;;5127823;27;46576;-80
2023/03/21 00:12:08;;;;;;;2.25;0.95;;;17.40;86.30;;;;;;5130762;27;45155;-80
2023/03/21 00:14:36;;;;;;;1.20;0.73;;;17.40;86.10;;;;;;5130828;27;45169;-80
2023/03/21 00:17:04;;;;;;;0.80;0.52;;;17.40;85.90;;;;;;5130651;27;45224;-80
2023/03/21 00:19:30;;;;;;;2.83;0.90;;;17.40;86.50;;;;;;5133629;27;47580;-80
2023/03/21 00:22:00;;;;;;;0.80;0.60;;;17.40;87.20;;;;;;5130660;27;45205;-79
2023/03/21 00:24:27;;;;;;;2.72;1.00;;;17.40;85.70;;;;;;5130811;27;45125;-80
2023/03/21 00:26:54;;;;;;;1.25;0.82;;;17.40;85.60;;;;;;5130204;27;45644;-80
2023/03/21 00:29:21;;;;;;;1.42;0.57;;;17.40;85.50;;;;;;5130153;27;46627;-80
2023/03/21 00:31:49;;;;;;;1.08;0.60;;;17.40;86.10;;;;;;5130318;27;45396;-80
2023/03/21 00:34:16;;;;;;;1.10;0.90;;;17.40;84.90;;;;;;5130387;27;45079;-80
2023/03/21 00:36:42;;;;;;;2.17;0.80;;;17.40;85.60;;;;;;5130307;27;45135;-79
2023/03/21 00:39:10;;;;;;;3.00;1.00;;;17.40;85.40;;;;;;5130289;27;46759;-79
2023/03/21 00:41:37;;;;;;;1.70;0.93;;;17.40;84.80;;;;;;5130222;27;45264;-79
2023/03/21 00:44:04;;;;;;;1.00;0.57;;;17.40;85.70;;;;;;5130398;27;45238;-79
2023/03/21 00:46:31;;;;;;;1.65;0.80;;;17.40;85.60;;;;;;5130090;27;45111;-79
2023/03/21 00:48:59;;;;;;;2.58;0.90;;;17.40;85.10;;;;;;5129923;27;47054;-79
2023/03/21 00:51:26;;;;;;;2.83;0.77;;;17.40;85.60;;;;;;5129842;27;46601;-79
2023/03/21 00:53:54;;;;;;;0.90;0.82;;;17.40;85.60;;;;;;5130080;27;45351;-79
2023/03/21 00:56:21;;;;;;;2.40;1.10;;;17.40;85.90;;;;;;5129998;27;45200;-79
2023/03/21 00:58:48;;;;;;;1.10;0.75;;;17.40;86.50;;;;;;5129610;27;48020;-79
2023/03/21 01:01:15;;;;;;;1.83;0.90;;;17.40;86.40;;;;;;5129751;27;45147;-79
2023/03/21 01:03:46;;;;;;;2.40;0.90;;;17.40;86.70;;;;;;5129915;27;45338;-79
2023/03/21 01:06:18;;;;;;;1.42;0.70;;;17.40;87.00;;;;;;5130290;27;45375;-79
2023/03/21 01:08:45;;;;;;;1.83;0.80;;;17.40;85.60;;;;;;5129890;27;47016;-79
2023/03/21 01:11:15;;;;;;;2.17;0.98;;;17.40;86.10;;;;;;5133160;27;45131;-78
2023/03/21 01:13:42;;;;;;;2.40;1.10;;;17.40;86.10;;;;;;5129645;27;45338;-79
2023/03/21 01:16:10;;;;;;;1.33;0.82;;;17.50;86.00;;;;;;5129930;27;45451;-79
2023/03/21 01:18:39;;;;;;;1.80;0.70;;;17.50;86.10;;;;;;5129555;27;47464;-79
2023/03/21 01:21:08;;;;;;;2.45;0.95;;;17.50;84.70;;;;;;5129424;27;45288;-78
2023/03/21 01:23:37;;;;;;;2.13;0.80;;;17.50;84.70;;;;;;5129444;27;45213;-78
2023/03/21 01:26:04;;;;;;;1.75;0.77;;;17.40;85.10;;;;;;5129641;27;45407;-78
2023/03/21 01:28:31;;;;;;;2.85;0.90;;;17.40;85.20;;;;;;5129152;27;46632;-78
2023/03/21 01:31:01;;;;;;;1.55;0.95;;;17.40;85.00;;;;;;5129702;27;45196;-78
2023/03/21 01:33:28;;;;;;;0.82;0.68;;;17.40;85.20;;;;;;5129256;27;45099;-78
2023/03/21 01:35:55;;;;;;;0.90;0.50;;;17.40;85.30;;;;;;5129417;27;45180;-78
2023/03/21 01:38:22;;;;;;;2.97;0.60;;;17.40;85.70;;;;;;5128975;27;47575;-78
2023/03/21 01:40:51;;;;;;;2.50;0.75;;;17.60;85.70;;;;;;5128953;27;45222;-79
2023/03/21 01:43:24;;;;;;;2.95;0.82;;;17.80;85.30;;;;;;5128489;27;45312;-78
2023/03/21 01:46:22;;;;;;;1.58;0.93;;;17.40;85.80;;;;;;5129695;27;45232;-78
2023/03/21 01:48:52;;;;;;;1.73;0.80;;;17.40;85.00;;;;;;5128976;27;46645;-78
2023/03/21 01:51:21;;;;;;;1.52;0.90;;;17.40;85.20;;;;;;5129350;27;45166;-78
2023/03/21 01:53:48;;;;;;;1.02;0.80;;;17.40;85.80;;;;;;5128991;27;45265;-78
2023/03/21 01:56:22;;;;;;;1.75;0.70;;;17.40;85.60;;;;;;5129454;27;45198;-78
2023/03/21 01:58:50;;;;;;;1.73;0.85;;;17.40;85.10;;;;;;5128736;27;48502;-78
2023/03/21 02:01:17;;;;;;;1.70;1.00;;;17.40;85.90;;;;;;5128971;27;45340;-78
2023/03/21 02:03:50;;;;;;;1.65;0.80;;;17.40;86.30;;;;;;5132296;27;45223;-78
2023/03/21 02:06:29;;;;;;;2.13;0.90;;;17.40;86.10;;;;;;5128976;27;45173;-78
2023/03/21 02:08:58;;;;;;;3.60;1.00;;;17.40;86.10;;;;;;5128709;27;48296;-77
2023/03/21 02:11:27;;;;;;;1.35;0.77;;;17.40;85.90;;;;;;5128555;27;45251;-77
2023/03/21 02:13:54;;;;;;;0.98;0.68;;;17.40;85.60;;;;;;5128658;27;45327;-78
2023/03/21 02:16:29;;;;;;;1.92;0.70;;;17.50;85.50;;;;;;5128580;27;45581;-77
2023/03/21 02:19:06;;;;;;;1.35;0.80;;;17.50;85.10;;;;;;5128126;27;45471;-77
2023/03/21 02:22:14;;;;;;;2.28;0.90;;;17.50;84.90;;;;;;5128539;27;45236;-78
2023/03/21 02:25:12;;;;;;;0.85;0.63;;;17.40;85.40;;;;;;5128270;27;45208;-77
2023/03/21 02:27:46;;;;;;;1.15;0.60;;;17.40;84.60;;;;;;5087210;28;45584;-77
2023/03/21 02:30:41;;;;;;;1.15;0.70;;;17.40;84.90;;;;;;5087002;28;46408;-77
2023/03/21 02:33:33;;;;;;;1.75;0.70;;;17.40;84.60;;;;;;5086460;28;45158;-77
2023/03/21 02:36:17;;;;;;;1.60;0.80;;;17.40;85.10;;;;;;5087336;28;45167;-77
2023/03/21 02:38:53;;;;;;;1.02;0.77;;;17.40;84.60;;;;;;5087136;28;45477;-77
2023/03/21 02:41:26;;;;;;;2.30;1.00;;;17.40;84.80;;;;;;5087053;28;46321;-77
2023/03/21 02:43:59;;;;;;;2.88;1.00;;;17.40;84.90;;;;;;5102742;27;45362;-77
2023/03/21 02:46:33;;;;;;;1.13;0.90;;;17.40;85.60;;;;;;5107269;27;45305;-77
2023/03/21 02:49:05;;;;;;;2.13;0.93;;;17.40;84.50;;;;;;5107569;27;45514;-77
2023/03/21 02:51:33;;;;;;;1.30;0.80;;;17.40;84.90;;;;;;5107230;27;47380;-77
2023/03/21 02:54:05;;;;;;;1.67;0.80;;;17.40;84.50;;;;;;5107292;27;45175;-77
2023/03/21 02:56:33;;;;;;;2.15;0.98;;;17.40;85.20;;;;;;5110645;27;45246;-77
2023/03/21 02:59:00;;;;;;;2.10;0.82;;;17.40;85.30;;;;;;5107133;27;45253;-77
2023/03/21 03:01:27;;;;;;;2.83;0.90;;;17.40;84.70;;;;;;5119185;27;46084;-77
2023/03/21 03:03:54;;;;;;;2.25;0.80;;;17.50;86.10;;;;;;5127659;27;45188;-77
2023/03/21 03:06:26;;;;;;;2.03;0.93;;;17.50;85.30;;;;;;5127722;27;45355;-77
2023/03/21 03:09:09;;;;;;;0.95;0.70;;;17.40;85.20;;;;;;5127998;27;45144;-77
2023/03/21 03:11:39;;;;;;;1.13;0.77;;;17.50;85.10;;;;;;5127516;27;45486;-77
2023/03/21 03:14:36;;;;;;;2.10;0.90;;;17.50;86.10;;;;;;5127266;27;45189;-77
2023/03/21 03:17:15;;;;;;;4.18;1.15;;;17.50;85.00;;;;;;5118211;27;45263;-77
2023/03/21 03:19:50;;;;;;;2.78;0.60;;;17.50;84.30;;;;;;5107181;27;45346;-77
2023/03/21 03:22:23;;;;;;;2.30;0.85;;;17.40;84.90;;;;;;5106118;27;48207;-77
2023/03/21 03:24:57;;;;;;;1.67;0.85;;;17.40;84.30;;;;;;5106340;27;45648;-77
2023/03/21 03:27:28;;;;;;;2.78;0.93;;;17.40;84.30;;;;;;5106551;27;45296;-77
2023/03/21 03:29:57;;;;;;;1.38;0.65;;;17.40;83.50;;;;;;5106080;27;45230;-77
2023/03/21 03:32:29;;;;;;;3.47;0.95;;;17.40;84.30;;;;;;5106205;27;47547;-76
2023/03/21 03:34:57;;;;;;;2.80;1.02;;;17.40;84.60;;;;;;5106408;27;45324;-76
2023/03/21 03:37:27;;;;;;;1.20;0.75;;;17.40;84.10;;;;;;5106210;27;45237;-76
2023/03/21 03:40:02;;;;;;;1.15;0.82;;;17.40;84.30;;;;;;5106450;27;45619;-76
2023/03/21 03:42:34;;;;;;;1.27;0.60;;;17.40;84.00;;;;;;5105910;27;47756;-77
2023/03/21 03:45:02;;;;;;;2.33;0.85;;;17.40;84.00;;;;;;5107660;27;45161;-77
2023/03/21 03:47:36;;;;;;;2.35;0.70;;;17.40;83.80;;;;;;5113389;27;45221;-77
2023/03/21 03:50:09;;;;;;;2.83;1.13;;;17.40;84.40;;;;;;5109851;27;45382;-77
2023/03/21 03:52:39;;;;;;;0.98;0.75;;;17.40;83.80;;;;;;5109787;27;45461;-77
2023/03/21 03:55:10;;;;;;;2.88;0.80;;;17.40;84.10;;;;;;5108874;27;45457;-76
2023/03/21 03:57:38;;;;;;;2.15;1.00;;;17.40;85.70;;;;;;5088820;27;45304;-76
2023/03/21 04:00:10;;;;;;;2.50;0.90;;;17.40;85.00;;;;;;5089255;28;45189;-76
2023/03/21 04:02:37;;;;;;;2.50;0.88;;;17.50;85.00;;;;;;5088656;28;46602;-77
2023/03/21 04:05:05;;;;;;;1.73;0.93;;;17.50;84.60;;;;;;5106132;27;45212;-77
2023/03/21 04:07:32;;;;;;;2.97;1.00;;;17.50;83.30;;;;;;5109328;27;45322;-76
2023/03/21 04:09:58;;;;;;;1.13;0.80;;;17.50;84.10;;;;;;5108811;27;45470;-77
2023/03/21 04:12:27;;;;;;;1.73;0.95;;;17.50;84.20;;;;;;5109393;27;46493;-76
2023/03/21 04:14:54;;;;;;;2.97;0.80;;;17.50;84.50;;;;;;5109289;27;45347;-76
2023/03/21 04:17:20;;;;;;;1.52;0.80;;;17.50;85.00;;;;;;5097378;27;45380;-76
2023/03/21 04:19:50;;;;;;;2.55;0.73;;;17.50;84.10;;;;;;5102333;27;45308;-76
2023/03/21 04:22:17;;;;;;;0.98;0.68;;;17.40;84.40;;;;;;5093017;27;46836;-76
2023/03/21 04:24:44;;;;;;;1.35;1.02;;;17.40;84.20;;;;;;5094214;27;45222;-77
2023/03/21 04:27:10;;;;;;;1.20;0.82;;;17.40;83.40;;;;;;5101653;27;45364;-76
2023/03/21 04:29:39;;;;;;;2.05;0.70;;;17.40;83.60;;;;;;5116596;27;45639;-76
2023/03/21 04:32:16;;;;;;;2.05;0.80;;;17.40;83.00;;;;;;5099423;27;46463;-76
2023/03/21 04:34:48;;;;;;;1.60;0.70;;;17.40;83.40;;;;;;5088356;28;45245;-76
2023/03/21 04:37:16;;;;;;;1.08;0.65;;;17.40;84.10;;;;;;5107581;27;45295;-76
2023/03/21 04:39:42;;;;;;;1.52;0.65;;;17.40;83.60;;;;;;5112094;27;45610;-76
2023/03/21 04:42:09;;;;;;;1.48;0.63;;;17.40;83.30;;;;;;5100800;27;48043;-76
2023/03/21 04:44:36;;;;;;;1.75;1.05;;;17.40;83.60;;;;;;5108555;27;45367;-76
2023/03/21 04:47:04;;;;;;;1.27;0.70;;;17.40;83.60;;;;;;5099802;27;45210;-76
2023/03/21 04:49:31;;;;;;;1.35;0.90;;;17.40;82.40;;;;;;5100931;27;45222;-76
2023/03/21 04:51:58;;;;;;;2.17;0.80;;;17.40;84.50;;;;;;5108223;27;48373;-76
2023/03/21 04:54:25;;;;;;;1.23;0.80;;;17.40;84.50;;;;;;5108428;27;45183;-76
2023/03/21 04:56:52;;;;;;;2.08;1.02;;;17.40;84.90;;;;;;5107411;27;45370;-76
2023/03/21 04:59:20;;;;;;;2.45;0.93;;;17.40;84.90;;;;;;5103406;27;45258;-76
2023/03/21 05:01:48;;;;;;;1.30;0.70;;;17.40;84.70;;;;;;5087637;28;46518;-77
2023/03/21 05:04:17;;;;;;;1.73;0.85;;;17.40;85.10;;;;;;5106037;27;45987;-76
2023/03/21 05:06:45;;;;;;;2.38;0.90;;;17.40;84.70;;;;;;5108410;27;45371;-76
2023/03/21 05:09:13;;;;;;;1.30;0.65;;;17.40;84.70;;;;;;5108900;27;45126;-76
2023/03/21 05:11:41;;;;;;;2.58;0.90;;;17.40;84.40;;;;;;5107895;27;46103;-76
2023/03/21 05:14:09;;;;;;;1.70;0.65;;;17.40;84.50;;;;;;5091270;27;45399;-75
2023/03/21 05:16:37;;;;;;;1.50;0.90;;;17.30;84.50;;;;;;5128820;27;45214;-77
2023/03/21 05:19:04;;;;;;;1.42;0.68;;;17.30;85.30;;;;;;5130101;27;45305;-79
2023/03/21 05:21:40;;;;;;;1.25;0.68;;;17.60;84.00;;;;;;5129667;27;47364;-77
2023/03/21 05:24:10;;;;;;;1.00;0.60;;;17.30;80.40;;;;;;5129310;27;45315;-77
2023/03/21 05:26:37;;;;;;;1.40;0.60;;;17.30;80.80;;;;;;5128901;27;45205;-76
2023/03/21 05:29:05;;;;;;;2.47;1.00;;;17.30;80.90;;;;;;5127957;27;45145;-76
2023/03/21 05:31:32;;;;;;;1.33;0.80;;;17.30;80.80;;;;;;5105512;27;46394;-77
2023/03/21 05:33:59;;;;;;;1.73;0.82;;;17.30;80.60;;;;;;5108047;27;45320;-76
2023/03/21 05:36:26;;;;;;;1.98;0.90;;;17.30;80.30;;;;;;5108073;27;45273;-76
2023/03/21 05:38:54;;;;;;;2.75;1.05;;;17.20;80.80;;;;;;5108193;27;45424;-78
2023/03/21 05:41:21;;;;;;;1.67;0.90;;;17.20;80.70;;;;;;5108314;27;46282;-78
2023/03/21 05:43:48;;;;;;;1.52;0.90;;;17.20;80.50;;;;;;5107847;27;45686;-78
2023/03/21 05:46:15;;;;;;;2.22;1.20;;;17.20;81.80;;;;;;5108395;27;45351;-77
2023/03/21 05:48:41;;;;;;;1.52;0.80;;;17.20;82.50;;;;;;5108230;27;45408;-76
2023/03/21 05:51:08;;;;;;;2.58;0.90;;;17.20;82.40;;;;;;5108152;27;46181;-77
2023/03/21 05:53:35;;;;;;;1.50;1.10;;;17.20;82.40;;;;;;5108031;27;46000;-78
2023/03/21 05:56:04;;;;;;;2.88;1.00;;;17.20;82.60;;;;;;5108358;27;45280;-77
2023/03/21 05:58:31;;;;;;;5.28;1.38;;;17.20;82.00;;;;;;5108080;27;45382;-77
2023/03/21 06:00:57;;;;;;;4.38;0.98;;;17.20;82.20;;;;;;5107969;27;47536;-77
2023/03/21 06:03:24;;;;;;;3.80;1.25;;;17.20;82.40;;;;;;5107712;27;45157;-76
2023/03/21 06:05:51;;;;;;;2.88;1.10;;;17.20;82.20;;;;;;5107587;27;45095;-76
2023/03/21 06:08:19;;;;;;;2.92;1.30;;;17.20;82.30;;;;;;5106603;27;45261;-76
2023/03/21 06:10:46;;;;;;;3.25;1.10;;;17.20;81.20;;;;;;5107841;27;47221;-76
2023/03/21 06:13:14;;;;;;;2.85;1.10;;;17.30;81.90;;;;;;5107511;27;45649;-77
2023/03/21 06:15:41;;;;;;;4.30;1.30;;;17.30;81.00;;;;;;5107911;27;45221;-76
2023/03/21 06:18:08;;;;;;;3.97;1.27;;;17.30;82.10;;;;;;5096294;27;45269;-77
2023/03/21 06:20:35;;;;;;;2.83;1.10;;;17.30;81.30;;;;;;5128162;27;46614;-76
2023/03/21 06:23:02;;;;;;;3.70;1.30;;;17.30;81.50;;;;;;5111237;27;45273;-77
2023/03/21 06:25:28;;;;;;;1.88;1.00;;;17.20;82.10;;;;;;5111099;27;45115;-76
2023/03/21 06:27:55;;;;;;;2.15;0.90;;;17.20;81.70;;;;;;5108082;27;45395;-77
2023/03/21 06:30:24;;;;;;;1.52;0.90;;;17.30;82.60;;;;;;5107540;27;47394;-76
2023/03/21 06:32:51;;;;;;;1.80;1.02;;;17.30;82.60;;;;;;5107655;27;46429;-77
2023/03/21 06:35:18;;;;;;;2.60;1.10;;;17.30;81.90;;;;;;5107980;27;45091;-77
2023/03/21 06:37:48;;;;;;;6.22;0.82;;;17.30;81.90;;;;;;5108103;27;45072;-76
2023/03/21 06:40:15;;;;;;;2.45;1.33;;;17.30;82.00;;;;;;5107144;27;47268;-77
2023/03/21 06:42:42;;;;;;;3.08;1.08;;;17.30;82.30;;;;;;5106825;27;45221;-76
2023/03/21 06:45:09;;;;;;;3.13;1.15;;;17.30;81.90;;;;;;5107144;27;45221;-76
2023/03/21 06:47:37;;;;;;;1.77;1.00;;;17.30;82.90;;;;;;5107327;27;45395;-76
2023/03/21 06:50:06;;;;;;;2.92;1.08;;;17.30;82.70;;;;;;5107195;27;48845;-77
2023/03/21 06:52:33;;;;;;;2.05;1.08;;;17.30;82.80;;;;;;5107423;27;45176;-77
2023/03/21 06:54:59;;;;;;;3.28;0.90;;;17.30;83.20;;;;;;5107450;27;45086;-77
2023/03/21 06:57:26;;;;;;;2.30;0.90;;;17.30;83.30;;;;;;5107295;27;45569;-76
2023/03/21 06:59:53;;;;;;;1.20;0.80;;;17.30;83.70;;;;;;5107064;27;47272;-76
2023/03/21 07:02:20;;;;;;;1.27;0.80;;;17.30;83.40;;;;;;5107075;27;45347;-76
2023/03/21 07:04:48;;;;;;;2.15;0.88;;;17.40;83.50;;;;;;5107391;27;45228;-76
2023/03/21 07:07:15;;;;;;;1.65;0.75;;;17.30;83.30;;;;;;5107485;27;45060;-76
2023/03/21 07:09:41;;;;;;;1.92;0.93;;;17.40;82.90;;;;;;5106711;27;47944;-77
2023/03/21 07:12:08;;;;;;;2.08;1.00;;;17.30;82.10;;;;;;5107010;27;45227;-77
2023/03/21 07:14:35;;;;;;;2.22;0.80;;;17.40;83.10;;;;;;5107067;27;45233;-76
2023/03/21 07:17:02;;;;;;;3.47;0.80;;;17.40;83.20;;;;;;5110232;27;45440;-77
2023/03/21 07:19:29;;;;;;;2.00;0.90;;;17.40;82.90;;;;;;5106315;27;48395;-77
2023/03/21 07:21:59;;;;;;;3.13;0.90;;;17.40;82.20;;;;;;5106877;27;45104;-77
2023/03/21 07:24:26;;;;;;;1.13;0.73;;;17.40;82.60;;;;;;5107132;27;45206;-77
2023/03/21 07:26:53;;;;;;;1.58;0.80;;;17.40;82.60;;;;;;5106893;27;45616;-77
2023/03/21 07:29:22;;;;;;;2.40;0.82;;;17.40;82.60;;;;;;5106555;27;46320;-77
2023/03/21 07:31:48;;;;;;;1.83;0.77;;;17.40;82.60;;;;;;5106859;27;45302;-77
2023/03/21 07:34:16;;;;;;;2.03;0.90;;;17.40;82.60;;;;;;5106694;27;45159;-78
2023/03/21 07:36:43;;;;;;;2.20;0.75;;;17.40;82.90;;;;;;5107079;27;45609;-78
2023/03/21 07:39:11;;;;;;;0.65;0.47;;;17.40;82.70;;;;;;5106822;27;47703;-77
2023/03/21 07:41:38;;;;;;;2.80;0.85;;;17.40;82.70;;;;;;5106431;27;45343;-77
2023/03/21 07:44:05;;;;;;;1.00;0.50;;;17.40;82.90;;;;;;5106961;27;45282;-77
2023/03/21 07:46:32;;;;;;;1.35;0.50;;;17.40;83.40;;;;;;5107038;27;45457;-78
2023/03/21 07:48:59;;;;;;;1.52;0.70;;;17.40;83.30;;;;;;5106418;27;47505;-77
2023/03/21 07:51:26;;;;;;;1.85;0.75;;;17.40;82.90;;;;;;5106796;27;45287;-77
2023/03/21 07:53:52;;;;;;;1.85;0.77;;;17.50;83.00;;;;;;5106824;27;45235;-78
2023/03/21 07:56:20;;;;;;;2.28;0.93;;;17.50;83.20;;;;;;5106784;27;45177;-77
2023/03/21 07:58:47;;;;;;;1.00;0.63;;;17.40;83.50;;;;;;5106253;27;46904;-78
2023/03/21 08:01:14;;;;;;;0.95;0.75;;;17.50;83.40;;;;;;5106251;27;46391;-77
2023/03/21 08:03:42;;;;;;;2.65;0.90;;;17.50;82.80;;;;;;5106628;27;45076;-78
2023/03/21 08:06:09;;;;;;;1.20;0.50;;;17.40;83.70;;;;;;5106488;27;45601;-77
2023/03/21 08:08:37;;;;;;;1.35;0.70;;;17.40;82.80;;;;;;5109805;27;46354;-77
2023/03/21 08:11:04;;;;;;;2.03;0.70;;;17.40;82.70;;;;;;5106564;27;45115;-78
2023/03/21 08:13:32;;;;;;;1.38;0.70;;;17.40;83.10;;;;;;5106364;27;45206;-79
2023/03/21 08:15:59;;;;;;;2.30;0.60;;;17.40;82.90;;;;;;5106502;27;45578;-79
2023/03/21 08:18:26;;;;;;;0.80;0.57;;;17.40;83.50;;;;;;5106043;27;48494;-78
2023/03/21 08:20:53;;;;;;;1.00;0.60;;;17.30;83.00;;;;;;5105910;27;45923;-77
2023/03/21 08:23:20;;;;;;;1.10;0.70;;;17.40;83.70;;;;;;5106533;27;45120;-78
2023/03/21 08:25:50;;;;;;;1.02;0.63;;;17.30;83.60;;;;;;5106325;27;45408;-78
2023/03/21 08:28:17;;;;;;;2.28;0.70;;;17.30;83.70;;;;;;5106085;27;45508;-78
2023/03/21 08:30:45;;;;;;;1.20;0.70;;;17.30;84.10;;;;;;5107286;27;45151;-78
2023/03/21 08:33:13;;;;;;;0.82;0.73;;;17.30;84.10;;;;;;5109845;27;45160;-77
2023/03/21 08:35:40;;;;;;;0.52;0.52;;;17.40;83.90;;;;;;5109736;27;45194;-78
2023/03/21 08:38:08;;;;;;;1.05;0.40;;;17.40;82.90;;;;;;5109186;27;46314;-78
2023/03/21 08:40:35;;;;;;;1.85;0.90;;;17.40;82.30;;;;;;5109328;27;45068;-78
2023/03/21 08:43:02;;;;;;;2.20;0.80;;;17.40;82.10;;;;;;5109107;27;45341;-78
2023/03/21 08:45:29;;;;;;;0.82;0.60;;;17.40;81.90;;;;;;5109771;27;45399;-79
2023/03/21 08:47:57;;;;;;;1.35;0.70;;;17.40;81.50;;;;;;5109571;27;46831;-78
2023/03/21 08:50:28;;;;;;;1.77;0.65;;;17.50;82.20;;;;;;5109541;27;45628;-79
2023/03/21 08:52:55;;;;;;;0.90;0.68;;;17.50;82.90;;;;;;5109845;27;45225;-78
2023/03/21 08:55:21;;;;;;;1.00;0.73;;;17.50;82.40;;;;;;5109431;27;45309;-78
2023/03/21 08:57:48;;;;;;;2.33;0.73;;;17.50;83.00;;;;;;5109086;27;46319;-78
2023/03/21 09:00:19;;;;;;;1.85;0.90;;;17.50;82.70;;;;;;5112214;27;45384;-78
2023/03/21 09:02:48;;;;;;;0.90;0.50;;;17.50;82.40;;;;;;5109571;27;45301;-78
2023/03/21 09:05:16;;;;;;;1.00;0.68;;;17.50;82.50;;;;;;5109109;27;45570;-78
2023/03/21 09:07:44;;;;;;;1.42;0.70;;;17.50;82.60;;;;;;5109076;27;46982;-78
2023/03/21 09:10:14;;;;;;;0.60;0.60;;;17.50;82.90;;;;;;5108836;27;45243;-78
2023/03/21 09:12:41;;;;;;;0.93;0.70;;;17.50;83.40;;;;;;5109097;27;45214;-78
2023/03/21 09:15:10;;;;;;;1.17;0.80;;;17.50;82.90;;;;;;5109483;27;45710;-78
2023/03/21 09:17:40;;;;;;;2.10;0.80;;;17.50;83.10;;;;;;5109070;27;47759;-78
2023/03/21 09:20:10;;;;;;;2.33;0.50;;;17.50;83.00;;;;;;5108751;27;45149;-78
2023/03/21 09:22:38;;;;;;;2.67;0.75;;;17.50;83.10;;;;;;5108886;27;45162;-78
2023/03/21 09:25:10;;;;;;;1.25;0.60;;;17.40;82.60;;;;;;5109117;27;45277;-78
2023/03/21 09:27:37;;;;;;;2.72;0.75;;;17.50;82.80;;;;;;5109117;27;45576;-79
2023/03/21 09:30:06;;;;;;;0.88;0.55;;;17.50;82.90;;;;;;5109124;27;45321;-78
2023/03/21 09:32:33;;;;;;;1.15;0.60;;;17.50;83.10;;;;;;5109025;27;45204;-78
2023/03/21 09:35:00;;;;;;;1.92;0.75;;;17.50;83.30;;;;;;5109321;27;45361;-78
2023/03/21 09:37:27;;;;;;;1.73;0.77;;;17.50;83.00;;;;;;5108288;27;47467;-78
2023/03/21 09:39:57;;;;;;;0.80;0.63;;;17.50;83.10;;;;;;5108702;27;45285;-78
2023/03/21 09:42:35;;;;;;;1.33;0.70;;;17.50;83.70;;;;;;5108441;27;45629;-78
2023/03/21 09:45:12;;;;;;;1.63;0.70;;;17.50;83.60;;;;;;5108832;27;45379;-78
2023/03/21 09:47:48;;;;;;;1.67;0.73;;;17.50;83.60;;;;;;5108401;27;45251;-77
2023/03/21 09:50:19;;;;;;;1.30;0.70;;;17.50;85.00;;;;;;5108454;27;45265;-78
2023/03/21 09:52:51;;;;;;;0.98;0.63;;;17.50;83.80;;;;;;5112192;27;45200;-78
2023/03/21 09:55:23;;;;;;;0.80;0.50;;;17.50;83.40;;;;;;5108581;27;45242;-78
2023/03/21 09:57:56;;;;;;;2.67;0.80;;;17.50;83.60;;;;;;5108335;27;48233;-78
2023/03/21 10:00:28;;;;;;;1.17;0.60;;;17.50;83.20;;;;;;5108533;27;45319;-78
2023/03/21 10:03:08;;;;;;;0.90;0.60;;;17.50;83.40;;;;;;5108470;27;45306;-78
2023/03/21 10:05:39;;;;;;;1.02;0.60;;;17.50;83.60;;;;;;5108265;27;45080;-78
2023/03/21 10:08:08;;;;;;;1.05;0.57;;;17.50;83.60;;;;;;5108120;27;48180;-79
2023/03/21 10:10:43;;;;;;;1.95;0.77;;;17.40;83.50;;;;;;5107849;27;45148;-79
2023/03/21 10:13:15;;;;;;;1.02;0.55;;;17.50;83.50;;;;;;5108398;27;45213;-78
2023/03/21 10:15:42;;;;;;;2.13;0.70;;;17.50;83.80;;;;;;5108035;27;45451;-78
2023/03/21 10:18:16;;;;;;;0.88;0.60;;;17.40;83.70;;;;;;5108012;27;46492;-79
2023/03/21 10:20:43;;;;;;;1.85;0.93;;;17.40;83.30;;;;;;5108047;27;45290;-79
2023/03/21 10:23:14;;;;;;;2.55;0.63;;;17.40;83.50;;;;;;5108132;27;45290;-78
2023/03/21 10:25:48;;;;;;;1.65;0.90;;;17.40;83.30;;;;;;5108151;27;45221;-78
2023/03/21 10:28:18;;;;;;;1.52;0.80;;;17.50;83.20;;;;;;5104794;27;46059;-78
2023/03/21 10:30:48;;;;;;;1.70;0.70;;;17.50;83.30;;;;;;5107968;27;46339;-78
2023/03/21 10:33:19;;;;;;;0.88;0.60;;;17.50;83.10;;;;;;5107909;27;45196;-78
2023/03/21 10:35:50;;;;;;;0.93;0.50;;;17.50;83.10;;;;;;5108496;27;45333;-79
2023/03/21 10:38:19;;;;;;;1.08;0.70;;;17.50;83.10;;;;;;5107363;27;46526;-80
2023/03/21 10:40:47;;;;;;;0.63;0.50;;;17.50;83.50;;;;;;5107209;27;45218;-78
2023/03/21 10:43:30;;;;;;;1.60;0.80;;;17.60;82.80;;;;;;5107600;27;45402;-78
2023/03/21 10:45:57;;;;;;;1.08;0.55;;;17.60;83.10;;;;;;5108241;27;45193;-79
2023/03/21 10:48:24;;;;;;;1.13;0.60;;;17.60;83.00;;;;;;5107404;27;45486;-79
2023/03/21 10:50:55;;;;;;;1.05;0.60;;;17.60;83.10;;;;;;5107259;27;45291;-80
2023/03/21 10:53:28;;;;;;;1.08;0.75;;;17.60;82.70;;;;;;5105952;27;45173;-80
2023/03/21 10:56:00;;;;;;;1.25;0.70;;;17.60;82.60;;;;;;5104487;27;45215;-79
2023/03/21 10:58:29;;;;;;;1.20;0.50;;;17.60;82.30;;;;;;5107375;27;48528;-79
2023/03/21 11:00:58;;;;;;;2.40;1.00;;;17.60;82.50;;;;;;5107313;27;45194;-79
2023/03/21 11:03:31;;;;;;;0.75;0.47;;;17.60;82.20;;;;;;5107170;27;45255;-79
2023/03/21 11:06:07;;;;;;;1.30;0.63;;;17.60;82.60;;;;;;5107794;27;45370;-79
2023/03/21 11:08:39;;;;;;;1.00;0.50;;;17.60;82.40;;;;;;5107278;27;47145;-79
2023/03/21 11:11:11;;;;;;;0.70;0.50;;;17.60;82.30;;;;;;5107263;27;45162;-79
2023/03/21 11:13:40;;;;;;;1.73;0.70;;;17.60;82.80;;;;;;5107304;27;45190;-79
2023/03/21 11:16:10;;;;;;;1.00;0.80;;;17.60;83.60;;;;;;5107616;27;45053;-78
2023/03/21 11:18:42;;;;;;;2.00;0.65;;;17.60;82.40;;;;;;5106979;27;45245;-79
2023/03/21 11:21:11;;;;;;;1.63;0.80;;;17.60;82.40;;;;;;5107254;27;45143;-78
2023/03/21 11:23:42;;;;;;;1.33;0.50;;;17.60;82.30;;;;;;5107204;27;45224;-78
2023/03/21 11:26:16;;;;;;;1.88;0.77;;;17.60;82.30;;;;;;5107172;27;45269;-78
2023/03/21 11:28:44;;;;;;;1.00;0.43;;;17.60;82.80;;;;;;5106953;27;47619;-78
2023/03/21 11:31:11;;;;;;;2.15;0.68;;;17.60;82.80;;;;;;5107194;27;45288;-78
2023/03/21 11:33:43;;;;;;;1.30;0.60;;;17.60;82.40;;;;;;5107048;27;45328;-78
2023/03/21 11:36:33;;;;;;;1.08;0.70;;;17.60;82.50;;;;;;5110880;27;45348;-78
2023/03/21 11:39:12;;;;;;;1.85;0.60;;;17.60;82.60;;;;;;5106689;27;45457;-78
2023/03/21 11:41:42;;;;;;;1.02;0.65;;;17.60;82.50;;;;;;5106911;27;45089;-78
2023/03/21 11:44:26;;;;;;;1.98;0.70;;;17.60;82.60;;;;;;5106931;27;45209;-79
2023/03/21 11:46:54;;;;;;;1.27;0.70;;;17.60;82.40;;;;;;5106993;27;45572;-79
2023/03/21 11:49:21;;;;;;;0.95;0.60;;;17.60;82.30;;;;;;5106605;27;45702;-78
2023/03/21 11:51:57;;;;;;;1.50;0.50;;;17.60;82.70;;;;;;5106723;27;45072;-79
2023/03/21 11:54:30;;;;;;;1.10;0.50;;;17.60;82.40;;;;;;5106567;27;45104;-79
2023/03/21 11:57:07;;;;;;;0.93;0.60;;;17.60;82.40;;;;;;5107283;27;45368;-78
2023/03/21 11:59:41;;;;;;;0.88;0.68;;;17.60;82.10;;;;;;5106567;27;48342;-79
2023/03/21 12:02:28;;;;;;;1.00;0.60;;;17.60;82.40;;;;;;5106590;27;46033;-78
2023/03/21 12:04:56;;;;;;;1.55;0.70;;;17.60;82.40;;;;;;5106790;27;45088;-79
2023/03/21 12:07:40;;;;;;;0.88;0.73;;;17.60;82.30;;;;;;5110362;27;45379;-78
2023/03/21 12:10:29;;;;;;;1.85;0.57;;;17.60;82.20;;;;;;5110333;27;45311;-79
2023/03/21 12:13:04;;;;;;;2.83;0.75;;;17.60;82.30;;;;;;5109556;27;45225;-79
2023/03/21 12:15:36;;;;;;;0.77;0.60;;;17.60;82.40;;;;;;5110492;27;45306;-78
2023/03/21 12:18:13;;;;;;;1.00;0.55;;;17.60;82.40;;;;;;5110626;27;45218;-79
2023/03/21 12:20:44;;;;;;;1.00;0.55;;;17.60;82.40;;;;;;5110185;27;45244;-78
2023/03/21 12:23:33;;;;;;;1.23;0.73;;;17.60;82.40;;;;;;5109575;27;45162;-78
2023/03/21 12:26:11;;;;;;;0.60;0.50;;;17.60;82.80;;;;;;5110140;27;45302;-78
2023/03/21 12:28:48;;;;;;;1.40;0.80;;;17.60;82.60;;;;;;5113933;27;45054;-78
2023/03/21 12:31:23;;;;;;;1.55;0.73;;;17.60;82.60;;;;;;5110081;27;46785;-78
2023/03/21 12:34:04;;;;;;;1.00;0.50;;;17.60;82.70;;;;;;5109473;27;46156;-77
2023/03/21 12:36:49;;;;;;;1.55;0.52;;;17.60;82.60;;;;;;5109883;27;45293;-78
2023/03/21 12:39:26;;;;;;;1.08;0.80;;;17.60;82.60;;;;;;5110060;27;45308;-78
2023/03/21 12:42:18;;;;;;;0.43;0.40;;;17.60;82.60;;;;;;5108887;27;48149;-78
2023/03/21 12:44:50;;;;;;;1.30;0.60;;;17.60;82.80;;;;;;5104394;27;45410;-78
2023/03/21 12:47:22;;;;;;;1.88;0.65;;;17.60;82.40;;;;;;5109712;27;45284;-78
2023/03/21 12:49:51;;;;;;;2.03;0.80;;;17.60;82.60;;;;;;5109401;27;45417;-78
2023/03/21 12:52:23;;;;;;;1.02;0.70;;;17.60;82.60;;;;;;5109365;27;46968;-78
2023/03/21 12:54:56;;;;;;;0.80;0.50;;;17.60;82.80;;;;;;5109619;27;45385;-79
2023/03/21 12:57:28;;;;;;;1.02;0.40;;;17.60;82.60;;;;;;5109698;27;45098;-78
2023/03/21 13:00:09;;;;;;;1.05;0.60;;;17.60;82.60;;;;;;5109712;27;45366;-78
2023/03/21 13:02:40;;;;;;;1.45;0.63;;;17.60;82.90;;;;;;5108945;27;47286;-78
2023/03/21 13:05:15;;;;;;;1.20;0.60;;;17.60;83.30;;;;;;5108964;27;45176;-78